KJAU

Campbell County Airport

Jacksboro, Tennessee, USA
METAR KJAU 250015Z AUTO 00000KT 10SM CLR 26/18 A3009 RMK A01
Observed Flight Rules
May-25 @ 00:15 UTC (35 minutes ago) Visual Flight Rules
Visibility Clouds
10 miles
  • Clear skies
Temperatures Readings
Current 26°C / 79°F
Dewpoint 18°C / 64°F
Humidity 61%
Altimeter 30.09" Hg
Pressure 1019 hPa
Elevation 360
METAR KJAU 250015Z AUTO 00000KT 10SM CLR 26/18 A3009 RMK A01
Observed Flight Rules
May-25 @ 00:15 UTC
(35 minutes ago)
VFR
Clouds
  • Clear skies
Temperature Dewpoint
26°C / 79°F 18°C / 64°F
Humidity Altimeter Pressure
61% 30.09" Hg 1019 hPa